Time;durP1;ratioP1;P1;durP2;ratioP2;P2;SDS_P1;SDS_P2;PMS_P1;PMS_P2;Temp;Humidity;BMP_temperature;BMP_pressure;BME280_temperature;BME280_humidity;BME280_pressure;Samples;Min_cycle;Max_cycle;Signal;HPM_P1;HPM_P2
2022/01/28 00:01:06;;;;;;;17.15;8.83;;;;;;;1.98;74.07;96739.63;1724730;81;26011;-80
2022/01/28 00:03:36;;;;;;;14.03;8.05;;;;;;;1.98;74.08;96736.97;1724855;82;25533;-80
2022/01/28 00:06:06;;;;;;;13.32;7.65;;;;;;;1.98;74.10;96739.63;1724820;82;28027;-81
2022/01/28 00:08:32;;;;;;;18.37;8.80;;;;;;;1.98;74.10;96735.64;1724535;82;26331;-81
2022/01/28 00:10:59;;;;;;;12.35;6.87;;;;;;;1.98;74.10;96728.98;1724737;81;25752;-80
2022/01/28 00:18:52;;;;;;;16.30;7.70;;;;;;;2.03;74.00;96723.98;1724734;81;27432;-83
2022/01/28 00:39:43;;;;;;;8.98;4.80;;;;;;;1.99;74.03;96722.16;1724763;82;26922;-83
2022/01/28 00:42:10;;;;;;;14.38;8.23;;;;;;;1.96;74.09;96726.99;1724709;82;25546;-82
2022/01/28 00:44:37;;;;;;;11.60;7.08;;;;;;;1.94;74.17;96725.83;1734827;80;28252;-81
2022/01/28 00:47:05;;;;;;;12.85;7.40;;;;;;;1.94;74.30;96731.16;1754411;80;25741;-82
2022/01/28 00:49:31;;;;;;;11.33;7.05;;;;;;;1.95;74.34;96738.14;1733160;81;25793;-81
2022/01/28 00:51:58;;;;;;;12.98;7.83;;;;;;;1.97;74.27;96737.47;1754727;80;26021;-83
2022/01/28 00:54:25;;;;;;;15.00;8.43;;;;;;;1.99;74.33;96735.97;1730960;81;25747;-82
2022/01/28 00:56:51;;;;;;;11.12;6.62;;;;;;;2.03;74.38;96737.29;1719400;82;28314;-81
2022/01/28 00:59:18;;;;;;;13.93;7.65;;;;;;;2.05;74.38;96735.29;1719152;83;25805;-83
2022/01/28 01:01:45;;;;;;;13.03;8.03;;;;;;;2.07;74.32;96735.92;1719380;83;25734;-81
2022/01/28 01:04:13;;;;;;;10.85;6.08;;;;;;;2.08;74.25;96717.11;1719248;83;26829;-81
2022/01/28 01:06:39;;;;;;;9.48;6.00;;;;;;;2.10;74.23;96707.13;1719603;83;25717;-82
2022/01/28 01:09:06;;;;;;;10.93;6.60;;;;;;;2.11;74.19;96707.95;1719556;82;27420;-81
2022/01/28 01:11:32;;;;;;;8.90;6.17;;;;;;;2.11;74.16;96708.78;1719466;83;25897;-82
2022/01/28 01:13:59;;;;;;;8.63;5.78;;;;;;;2.11;74.17;96711.95;1719627;83;25881;-82
2022/01/28 01:16:35;;;;;;;8.35;5.45;;;;;;;2.10;74.20;96704.45;1723954;82;25958;-81
2022/01/28 01:21:37;;;;;;;9.40;5.90;;;;;;;2.13;74.27;96712.61;1732571;82;28128;-81
2022/01/28 01:23:58;;;;;;;9.28;5.35;;;;;;;2.14;74.22;96700.95;1731464;82;25758;-81
2022/01/28 01:26:33;;;;;;;10.08;6.10;;;;;;;2.16;74.21;96705.61;1732455;82;25948;-81
2022/01/28 01:28:56;;;;;;;8.15;5.15;;;;;;;2.18;74.20;96700.91;1732027;82;26005;-81
2022/01/28 01:31:23;;;;;;;8.10;5.08;;;;;;;2.18;74.17;96702.23;1732537;82;25753;-81
2022/01/28 01:33:57;;;;;;;8.58;5.55;;;;;;;2.19;74.19;96686.59;1732552;82;27352;-81
2022/01/28 01:36:18;;;;;;;7.85;5.45;;;;;;;2.18;74.14;96701.73;1731350;82;25813;-81
2022/01/28 01:38:45;;;;;;;9.83;6.53;;;;;;;2.20;74.12;96698.90;1732458;82;25733;-80
2022/01/28 01:41:27;;;;;;;7.42;5.08;;;;;;;2.22;74.13;96698.73;1732342;81;26112;-81
2022/01/28 01:44:00;;;;;;;8.10;5.53;;;;;;;2.23;74.10;96703.88;1729012;82;25819;-81
2022/01/28 01:52:02;;;;;;;7.35;4.87;;;;;;;2.23;74.06;96677.25;1732596;82;25740;-82
2022/01/28 01:54:30;;;;;;;7.25;4.47;;;;;;;2.23;74.04;96684.41;1732464;82;26870;-80
2022/01/28 01:56:56;;;;;;;6.78;5.33;;;;;;;2.22;74.04;96677.42;1732655;82;25729;-80
2022/01/28 01:59:23;;;;;;;7.67;5.20;;;;;;;2.21;74.06;96673.94;1732296;82;26888;-80
2022/01/28 02:01:50;;;;;;;6.95;5.33;;;;;;;2.21;74.06;96671.27;1732448;82;25805;-81
2022/01/28 02:04:17;;;;;;;8.48;5.20;;;;;;;2.22;74.05;96673.44;1732518;82;25748;-81
2022/01/28 02:06:44;;;;;;;8.90;5.00;;;;;;;2.20;74.03;96672.27;1732589;82;26026;-81
2022/01/28 02:09:11;;;;;;;7.83;5.00;;;;;;;2.21;74.07;96669.94;1732460;82;25310;-81
2022/01/28 02:11:40;;;;;;;5.78;4.58;;;;;;;2.21;74.10;96677.09;1732569;82;27411;-81
2022/01/28 02:14:08;;;;;;;7.35;4.55;;;;;;;2.23;74.11;96679.91;1732449;82;25768;-81
2022/01/28 02:16:35;;;;;;;6.92;3.80;;;;;;;2.24;74.11;96678.08;1732598;82;25724;-81
2022/01/28 02:19:02;;;;;;;5.45;3.90;;;;;;;2.25;74.10;96680.58;1734028;82;26739;-81
2022/01/28 02:21:44;;;;;;;5.55;2.92;;;;;;;2.29;74.12;96694.38;1734057;82;25796;-81
2022/01/28 02:24:09;;;;;;;4.37;3.17;;;;;;;2.29;74.05;96689.05;1733343;82;27412;-82
2022/01/28 02:26:37;;;;;;;4.55;2.85;;;;;;;2.31;74.14;96684.34;1733878;81;26127;-81
2022/01/28 02:29:14;;;;;;;6.12;3.08;;;;;;;2.33;74.21;96679.67;1709231;82;25740;-81
2022/01/28 02:31:35;;;;;;;3.22;2.67;;;;;;;2.32;74.22;96673.52;1697882;83;26011;-81
2022/01/28 02:34:03;;;;;;;3.85;2.75;;;;;;;2.32;74.13;96661.53;1733917;82;25786;-81
2022/01/28 02:36:30;;;;;;;3.90;2.58;;;;;;;2.33;74.17;96675.18;1734039;82;27464;-80
2022/01/28 02:38:59;;;;;;;4.87;2.55;;;;;;;2.34;74.16;96660.86;1733902;82;25899;-81
2022/01/28 02:41:30;;;;;;;4.05;2.50;;;;;;;2.34;74.03;96642.22;1733737;82;25720;-80
2022/01/28 02:46:25;;;;;;;2.90;2.40;;;;;;;2.38;74.00;96624.87;1733690;82;25821;-81
2022/01/28 02:48:59;;;;;;;3.60;2.35;;;;;;;2.40;73.88;96628.20;1733847;82;27446;-80
2022/01/28 02:51:22;;;;;;;3.90;2.40;;;;;;;2.42;73.76;96634.65;1732601;82;25772;-79
2022/01/28 02:53:58;;;;;;;3.95;2.35;;;;;;;2.40;73.42;96638.85;1734028;82;25296;-78
2022/01/28 02:58:58;;;;;;;2.98;2.10;;;;;;;2.42;73.33;96653.30;1734011;82;25729;-79
2022/01/28 03:01:26;;;;;;;3.98;2.60;;;;;;;2.45;73.21;96654.28;1733905;82;27451;-81
2022/01/28 03:03:57;;;;;;;3.67;2.12;;;;;;;2.45;73.04;96647.11;1733910;82;25781;-82
2022/01/28 03:06:24;;;;;;;3.47;2.60;;;;;;;2.45;72.99;96663.09;1734235;82;25272;-82
2022/01/28 03:09:12;;;;;;;2.42;1.80;;;;;;;2.46;72.85;96661.27;1733880;82;26043;-81
2022/01/28 03:16:16;;;;;;;3.47;2.33;;;;;;;2.43;72.66;96656.28;1733896;82;25689;-82
2022/01/28 03:21:22;;;;;;;;;;;;;;;2.46;72.43;96653.27;1721868;82;26257;-80
2022/01/28 03:23:45;;;;;;;3.15;1.90;;;;;;;2.47;72.23;96669.08;1680362;84;25788;-82
2022/01/28 03:26:13;;;;;;;2.37;1.50;;;;;;;2.48;72.24;96665.41;1732864;81;27908;-89
2022/01/28 03:28:40;;;;;;;2.35;1.80;;;;;;;2.50;72.16;96679.39;1749080;81;25809;-82
2022/01/28 03:31:06;;;;;;;2.40;1.60;;;;;;;2.51;72.02;96668.23;1749311;81;25271;-84
2022/01/28 03:33:34;;;;;;;2.40;2.00;;;;;;;2.52;71.93;96678.71;1739259;81;26026;-82
2022/01/28 03:36:06;;;;;;;1.87;1.47;;;;;;;2.51;71.61;96661.06;1749197;81;25685;-82
2022/01/28 03:38:32;;;;;;;1.95;1.50;;;;;;;2.52;71.67;96685.37;1749091;81;27496;-82
2022/01/28 03:40:59;;;;;;;2.65;1.62;;;;;;;2.52;71.59;96692.03;1745764;81;25742;-82
2022/01/28 03:43:25;;;;;;;3.65;1.87;;;;;;;2.52;71.54;96705.35;1704857;82;25787;-83
2022/01/28 03:45:52;;;;;;;3.33;1.57;;;;;;;2.53;71.50;96689.70;1688718;84;26697;-83
2022/01/28 03:48:19;;;;;;;2.08;1.27;;;;;;;2.52;71.41;96696.03;1700944;83;25746;-82
2022/01/28 03:50:45;;;;;;;1.47;1.20;;;;;;;2.53;71.16;96695.02;1734372;81;28209;-83
2022/01/28 03:53:12;;;;;;;2.25;1.50;;;;;;;2.52;71.05;96689.37;1728599;82;25776;-82
2022/01/28 03:55:38;;;;;;;2.27;1.32;;;;;;;2.54;71.00;96683.33;1700684;82;25761;-83
2022/01/28 03:58:05;;;;;;;2.08;1.10;;;;;;;2.59;71.06;96684.64;1735826;82;25969;-83
2022/01/28 04:00:32;;;;;;;1.50;1.40;;;;;;;2.61;70.93;96685.30;1708763;82;25769;-83
2022/01/28 04:03:35;;;;;;;2.42;1.50;;;;;;;2.62;70.83;96685.13;1737814;81;27300;-82
2022/01/28 04:13:51;;;;;;;2.12;1.20;;;;;;;2.66;70.57;96706.88;1670426;83;26125;-83
2022/01/28 04:18:47;;;;;;;1.52;1.42;;;;;;;2.67;70.54;96705.88;1752794;80;26138;-83
2022/01/28 04:21:13;;;;;;;4.65;1.80;;;;;;;2.61;70.36;96710.11;1764867;80;26382;-84
2022/01/28 04:23:40;;;;;;;3.67;1.32;;;;;;;2.59;70.42;96713.95;1764794;81;26023;-82
2022/01/28 04:26:06;;;;;;;3.47;1.40;;;;;;;2.59;70.36;96715.28;1764833;80;25732;-79
2022/01/28 04:28:33;;;;;;;6.87;2.92;;;;;;;2.59;70.25;96703.29;1764014;80;27407;-85
2022/01/28 04:31:00;;;;;;;4.30;2.35;;;;;;;2.59;70.10;96708.63;1728730;82;25700;-82
2022/01/28 04:33:28;;;;;;;9.83;3.25;;;;;;;2.58;69.85;96705.63;1764710;80;26161;-83
2022/01/28 04:35:56;;;;;;;5.97;1.90;;;;;;;2.57;69.96;96690.65;1759844;79;25995;-82
2022/01/28 04:38:36;;;;;;;3.72;1.98;;;;;;;2.57;69.98;96686.65;1764926;80;25765;-82
2022/01/28 04:41:15;;;;;;;3.37;1.35;;;;;;;2.57;69.98;96686.65;1757724;80;27353;-81
2022/01/28 04:43:41;;;;;;;1.72;1.20;;;;;;;2.57;69.97;96679.98;1731158;80;25989;-80
2022/01/28 04:46:17;;;;;;;1.47;1.20;;;;;;;2.57;69.78;96679.48;1763877;80;25760;-81
2022/01/28 04:48:46;;;;;;;1.75;1.10;;;;;;;2.51;69.74;96689.04;1758918;80;26234;-81
2022/01/28 04:53:47;;;;;;;3.40;1.70;;;;;;;2.48;69.58;96698.71;1764818;80;27419;-82
2022/01/28 04:56:24;;;;;;;2.35;1.32;;;;;;;2.48;69.64;96670.73;1749389;81;26212;-82
2022/01/28 04:58:59;;;;;;;3.92;1.70;;;;;;;2.49;69.54;96686.22;1726589;82;25732;-82
2022/01/28 05:04:07;;;;;;;3.05;1.82;;;;;;;2.49;69.50;96680.39;1728441;82;25744;-82
2022/01/28 05:16:58;;;;;;;6.42;4.65;;;;;;;2.38;69.60;96683.48;1758748;80;25794;-81
2022/01/28 05:25:03;;;;;;;22.48;10.35;;;;;;;2.30;69.80;96689.34;1758576;80;25788;-80
2022/01/28 05:27:07;;;;;;;9.43;4.00;;;;;;;2.27;69.87;96687.89;1755097;81;26704;-82
2022/01/28 05:29:31;;;;;;;37.40;18.12;;;;;;;2.23;69.89;96687.91;1758423;81;25748;-80
2022/01/28 05:31:58;;;;;;;25.27;11.18;;;;;;;2.20;69.95;96696.73;1758860;80;27394;-80
2022/01/28 05:34:27;;;;;;;12.03;6.20;;;;;;;2.19;70.19;96695.91;1758738;81;26302;-82
2022/01/28 05:36:53;;;;;;;12.47;5.65;;;;;;;2.16;70.16;96697.11;1758408;81;25732;-80
2022/01/28 05:39:19;;;;;;;10.13;4.40;;;;;;;2.10;70.24;96700.97;1758913;80;26033;-80
2022/01/28 05:41:47;;;;;;;7.33;3.30;;;;;;;2.06;70.60;96708.97;1758946;81;25716;-80
2022/01/28 05:44:13;;;;;;;8.08;3.17;;;;;;;2.02;70.70;96702.36;1758731;81;27637;-80
2022/01/28 05:46:40;;;;;;;12.80;5.12;;;;;;;1.92;70.81;96705.74;1758766;81;25283;-81
2022/01/28 05:49:08;;;;;;;22.32;7.90;;;;;;;1.81;70.92;96703.77;1758816;80;25278;-80
2022/01/28 05:51:34;;;;;;;18.20;7.15;;;;;;;1.72;71.09;96708.81;1758826;81;25968;-79
2022/01/28 05:54:01;;;;;;;11.33;5.47;;;;;;;1.65;71.38;96717.17;1759027;81;25539;-81
2022/01/28 05:56:28;;;;;;;12.40;5.20;;;;;;;1.58;71.56;96718.84;1758978;80;28723;-78
2022/01/28 05:58:55;;;;;;;39.08;17.62;;;;;;;1.52;71.90;96723.53;1758919;80;25740;-80
2022/01/28 06:01:22;;;;;;;8.85;4.25;;;;;;;1.48;71.95;96732.84;1758996;81;25771;-80
2022/01/28 06:03:48;;;;;;;6.92;3.30;;;;;;;1.42;72.16;96741.52;1758916;81;25968;-80
2022/01/28 06:06:20;;;;;;;13.70;6.53;;;;;;;1.37;72.45;96743.84;1759035;81;25785;-80
2022/01/28 06:08:53;;;;;;;8.13;3.92;;;;;;;1.36;72.74;96744.84;1759031;81;27439;-80
2022/01/28 06:11:21;;;;;;;14.07;7.40;;;;;;;1.31;72.80;96741.89;1758864;80;25807;-80
2022/01/28 06:13:49;;;;;;;5.58;2.98;;;;;;;1.28;72.92;96750.20;1758890;81;25791;-79
2022/01/28 06:16:18;;;;;;;5.50;2.80;;;;;;;1.24;73.15;96756.34;1758950;81;26003;-81
2022/01/28 06:18:45;;;;;;;6.78;3.20;;;;;;;1.23;73.52;96751.19;1758790;80;25409;-80
2022/01/28 06:21:12;;;;;;;6.42;3.17;;;;;;;1.22;73.46;96755.67;1758725;81;27491;-80
2022/01/28 06:23:39;;;;;;;5.58;3.62;;;;;;;1.21;73.87;96765.17;1753972;81;25692;-80
2022/01/28 06:26:05;;;;;;;5.65;3.10;;;;;;;1.18;73.80;96770.82;1758979;81;25752;-79
2022/01/28 06:28:32;;;;;;;4.67;3.50;;;;;;;1.13;74.09;96762.01;1759032;80;26579;-82
2022/01/28 06:30:59;;;;;;;2.98;2.52;;;;;;;1.09;74.30;96764.16;1758973;81;25375;-80
2022/01/28 06:33:26;;;;;;;2.20;1.75;;;;;;;1.07;74.36;96753.39;1731024;80;27481;-82
2022/01/28 06:35:52;;;;;;;4.70;3.45;;;;;;;1.05;74.41;96772.66;1746777;81;25780;-83
2022/01/28 06:38:19;;;;;;;8.23;4.15;;;;;;;1.03;74.83;96775.98;1738673;81;25830;-82
2022/01/28 06:40:46;;;;;;;5.70;3.50;;;;;;;1.02;75.05;96778.30;1728527;82;26883;-82
2022/01/28 06:43:14;;;;;;;4.12;2.50;;;;;;;1.01;75.08;96784.61;1741925;80;25767;-84
2022/01/28 06:45:42;;;;;;;5.70;2.47;;;;;;;0.99;75.25;96775.97;1746079;81;27437;-82
2022/01/28 06:48:10;;;;;;;6.60;3.37;;;;;;;0.97;75.32;96774.80;1752278;80;25741;-82
2022/01/28 06:50:41;;;;;;;13.48;5.72;;;;;;;0.98;75.55;96784.44;1758797;80;25840;-82
2022/01/28 06:53:09;;;;;;;5.22;2.98;;;;;;;1.00;75.71;96789.09;1733977;81;25871;-83
2022/01/28 06:55:36;;;;;;;3.55;2.00;;;;;;;1.02;75.71;96779.13;1750875;81;25689;-82
2022/01/28 06:58:05;;;;;;;7.22;3.05;;;;;;;1.00;75.70;96782.45;1733754;81;27438;-82
2022/01/28 07:00:36;;;;;;;9.13;3.42;;;;;;;1.01;75.68;96785.95;1704557;82;26338;-82
2022/01/28 07:03:00;;;;;;;10.43;3.50;;;;;;;1.01;75.93;96802.72;1700047;82;25630;-82
2022/01/28 07:05:27;;;;;;;14.68;8.33;;;;;;;1.02;75.96;96798.23;1728573;82;25964;-83
2022/01/28 07:07:53;;;;;;;12.88;7.92;;;;;;;1.04;76.09;96783.79;1728699;82;25793;-83
2022/01/28 07:10:20;;;;;;;12.78;6.78;;;;;;;1.06;75.94;96804.39;1746595;80;28222;-82
2022/01/28 07:12:47;;;;;;;6.75;4.12;;;;;;;1.06;76.17;96804.39;1751858;81;25651;-83
2022/01/28 07:15:13;;;;;;;12.53;4.20;;;;;;;1.07;76.14;96803.40;1731764;81;25716;-84
2022/01/28 07:17:40;;;;;;;5.72;3.10;;;;;;;1.04;76.21;96801.06;1741381;81;26037;-82
2022/01/28 07:20:08;;;;;;;8.13;3.37;;;;;;;1.07;76.24;96815.86;1735922;81;26231;-86
2022/01/28 07:22:35;;;;;;;8.60;3.70;;;;;;;1.07;76.37;96811.38;1758827;80;28123;-82
2022/01/28 07:25:02;;;;;;;4.30;2.72;;;;;;;1.05;76.49;96797.41;1744149;81;25804;-81
2022/01/28 07:27:28;;;;;;;7.55;2.40;;;;;;;1.02;76.54;96827.47;1739734;81;25685;-82
2022/01/28 07:29:55;;;;;;;6.28;2.67;;;;;;;0.99;76.56;96829.95;1748739;81;26683;-82
2022/01/28 07:32:23;;;;;;;5.22;2.27;;;;;;;0.96;76.80;96813.53;1736382;81;25725;-82
2022/01/28 07:34:50;;;;;;;4.58;1.92;;;;;;;1.00;76.80;96834.28;1732632;81;27631;-81
2022/01/28 07:37:16;;;;;;;6.90;2.60;;;;;;;1.00;76.77;96850.22;1736869;81;25947;-85
2022/01/28 07:39:43;;;;;;;4.10;2.08;;;;;;;1.02;76.79;96839.44;1758667;80;25845;-83
2022/01/28 07:42:09;;;;;;;4.90;2.00;;;;;;;1.06;76.83;96840.27;1758706;80;26221;-82
2022/01/28 07:44:36;;;;;;;8.80;2.80;;;;;;;1.12;76.87;96833.95;1737998;81;25801;-82
2022/01/28 07:47:04;;;;;;;10.50;3.60;;;;;;;1.16;76.83;96841.43;1746963;81;28101;-81
2022/01/28 07:49:30;;;;;;;8.65;3.25;;;;;;;1.20;76.82;96842.77;1734498;81;25754;-82
2022/01/28 07:51:57;;;;;;;6.20;2.85;;;;;;;1.25;76.77;96830.29;1728675;82;25707;-83
2022/01/28 07:54:24;;;;;;;6.70;2.72;;;;;;;1.28;76.73;96857.88;1728621;81;26619;-82
2022/01/28 07:56:53;;;;;;;7.83;2.70;;;;;;;1.28;76.78;96864.52;1731559;81;25806;-83
2022/01/28 07:59:19;;;;;;;10.05;3.50;;;;;;;1.29;76.73;96864.36;1758757;80;27457;-81
2022/01/28 08:01:46;;;;;;;8.13;2.65;;;;;;;1.32;76.71;96862.70;1745934;81;25769;-82
2022/01/28 08:04:13;;;;;;;8.15;2.67;;;;;;;1.34;76.61;96866.50;1758907;80;25791;-79
2022/01/28 08:06:40;;;;;;;6.62;2.58;;;;;;;1.37;76.47;96868.34;1752820;81;25973;-82
2022/01/28 08:09:07;;;;;;;6.45;2.22;;;;;;;1.40;76.40;96864.02;1728255;81;25679;-79
2022/01/28 08:11:34;;;;;;;5.92;2.30;;;;;;;1.45;76.33;96863.50;1733827;82;27366;-79
2022/01/28 08:14:02;;;;;;;6.20;2.55;;;;;;;1.51;76.18;96862.02;1733628;81;25364;-79
2022/01/28 08:16:29;;;;;;;9.45;2.62;;;;;;;1.55;76.02;96864.18;1728493;81;25748;-79
2022/01/28 08:18:55;;;;;;;9.55;4.33;;;;;;;1.60;75.84;96883.61;1724805;82;26021;-79
2022/01/28 08:21:22;;;;;;;8.58;2.72;;;;;;;1.64;75.72;96886.27;1728667;81;25770;-79
2022/01/28 08:23:49;;;;;;;9.98;3.17;;;;;;;1.66;75.43;96858.50;1728710;81;28277;-78
2022/01/28 08:26:17;;;;;;;6.58;1.98;;;;;;;1.67;75.37;96873.48;1728662;81;25877;-81
2022/01/28 08:28:43;;;;;;;6.22;2.65;;;;;;;1.71;75.12;96862.80;1728586;81;25889;-80
2022/01/28 08:31:10;;;;;;;7.37;2.33;;;;;;;1.74;74.90;96850.50;1710225;82;26211;-79
2022/01/28 08:33:36;;;;;;;5.83;2.65;;;;;;;1.77;74.81;96866.63;1709936;83;25724;-80
2022/01/28 08:36:03;;;;;;;9.98;4.25;;;;;;;1.80;74.55;96871.62;1710213;82;27405;-78
2022/01/28 08:38:36;;;;;;;18.35;7.60;;;;;;;1.83;74.44;96873.09;1720361;82;25687;-81
2022/01/28 08:40:59;;;;;;;13.45;6.55;;;;;;;1.86;74.31;96882.07;1709270;82;25735;-80
2022/01/28 08:43:26;;;;;;;10.05;2.87;;;;;;;1.89;74.15;96903.03;1710053;82;26059;-79
2022/01/28 08:45:52;;;;;;;5.85;3.50;;;;;;;1.90;74.05;96900.20;1733752;81;25785;-79
2022/01/28 08:48:19;;;;;;;11.50;5.58;;;;;;;1.93;74.03;96911.02;1733721;82;28246;-81
2022/01/28 08:50:46;;;;;;;13.43;5.17;;;;;;;1.90;74.02;96915.34;1733531;81;25754;-80
2022/01/28 08:53:13;;;;;;;6.92;2.58;;;;;;;1.91;73.97;96904.53;1733831;81;25769;-80
2022/01/28 08:55:40;;;;;;;7.87;2.70;;;;;;;1.88;73.84;96901.37;1733641;81;26149;-82
2022/01/28 08:58:08;;;;;;;15.00;5.08;;;;;;;1.85;73.87;96924.32;1733757;81;25726;-81
2022/01/28 09:00:35;;;;;;;8.20;3.35;;;;;;;1.86;74.02;96907.36;1733725;81;27453;-83
2022/01/28 09:03:02;;;;;;;14.87;6.17;;;;;;;1.84;74.02;96922.16;1733701;81;25686;-82
2022/01/28 09:05:29;;;;;;;15.10;6.47;;;;;;;1.84;74.17;96916.84;1733854;81;25696;-82
2022/01/28 09:07:56;;;;;;;13.30;6.35;;;;;;;1.85;74.35;96916.34;1733897;81;26698;-81
2022/01/28 09:10:30;;;;;;;17.80;7.37;;;;;;;1.84;74.45;96928.81;1733870;81;25775;-82
2022/01/28 09:15:34;;;;;;;7.00;2.50;;;;;;;1.80;74.55;96910.20;1733697;81;25763;-81
2022/01/28 09:18:01;;;;;;;6.40;3.25;;;;;;;1.73;74.47;96911.86;1733565;82;26075;-82
2022/01/28 09:20:33;;;;;;;7.15;3.33;;;;;;;1.72;74.68;96927.00;1733481;81;25993;-81
2022/01/28 09:23:01;;;;;;;5.87;2.20;;;;;;;1.69;74.74;96918.54;1733800;82;25318;-80
2022/01/28 09:25:28;;;;;;;12.50;3.92;;;;;;;1.66;74.84;96901.08;1733890;81;28476;-81
2022/01/28 09:27:55;;;;;;;6.80;3.70;;;;;;;1.69;75.03;96916.68;1733767;81;25765;-82
2022/01/28 09:30:22;;;;;;;13.05;3.95;;;;;;;1.67;75.06;96922.70;1746478;80;25844;-83
2022/01/28 09:32:49;;;;;;;6.28;3.10;;;;;;;1.66;75.02;96911.72;1733674;82;26045;-88
2022/01/28 09:35:16;;;;;;;9.05;2.90;;;;;;;1.66;74.98;96915.71;1733876;82;26001;-82
2022/01/28 09:37:43;;;;;;;15.32;6.03;;;;;;;1.65;74.95;96894.09;1733977;82;27427;-82
2022/01/28 09:40:11;;;;;;;9.45;2.92;;;;;;;1.66;75.07;96906.40;1701315;84;25840;-82
2022/01/28 09:42:41;;;;;;;11.78;4.60;;;;;;;1.69;75.06;96906.04;1701292;82;25295;-81
2022/01/28 09:45:09;;;;;;;7.10;2.92;;;;;;;1.74;75.01;96909.04;1701018;82;26029;-82
2022/01/28 09:47:38;;;;;;;6.05;2.58;;;;;;;1.78;75.06;96905.05;1701426;84;25763;-82
2022/01/28 09:50:07;;;;;;;8.05;3.10;;;;;;;1.84;75.13;96933.30;1717279;82;27626;-82
2022/01/28 09:52:34;;;;;;;6.80;2.98;;;;;;;1.88;75.03;96913.34;1734481;82;25765;-81
2022/01/28 09:55:02;;;;;;;6.92;2.98;;;;;;;1.86;74.97;96920.16;1734038;81;25815;-83
2022/01/28 09:57:28;;;;;;;5.72;2.42;;;;;;;1.86;74.87;96919.33;1734035;81;26738;-81
2022/01/28 09:59:55;;;;;;;7.30;2.62;;;;;;;1.83;74.80;96903.69;1736032;81;25904;-80
2022/01/28 10:02:41;;;;;;;3.47;2.00;;;;;;;1.85;74.80;96926.48;1733876;81;27375;-82
2022/01/28 10:05:31;;;;;;;14.58;7.15;;;;;;;1.87;74.69;96893.88;1733820;82;25709;-83
2022/01/28 10:08:24;;;;;;;15.63;7.17;;;;;;;1.86;74.84;96930.81;1734530;81;25668;-82
2022/01/28 10:11:01;;;;;;;22.52;8.40;;;;;;;1.88;74.90;96914.67;1722705;82;45488;-82
2022/01/28 10:13:45;;;;;;;25.27;10.80;;;;;;;1.91;74.92;96939.13;1733655;82;25954;-82
2022/01/28 10:16:17;;;;;;;30.48;10.38;;;;;;;1.92;74.92;96948.78;1734919;82;27477;-83
2022/01/28 10:18:53;;;;;;;12.70;5.72;;;;;;;1.95;75.02;96936.94;1733804;82;25850;-82
2022/01/28 10:21:35;;;;;;;14.70;5.50;;;;;;;1.90;74.99;96932.64;1735690;82;25704;-82
2022/01/28 10:24:22;;;;;;;11.65;4.35;;;;;;;1.90;74.97;96945.95;1695207;84;26150;-81
2022/01/28 10:27:07;;;;;;;22.13;10.00;;;;;;;1.94;75.10;96939.27;1708193;83;26472;-82
2022/01/28 10:29:37;;;;;;;21.85;9.63;;;;;;;1.96;75.11;96937.28;1708115;83;27398;-82
2022/01/28 10:32:10;;;;;;;9.90;5.15;;;;;;;1.97;75.09;96942.94;1733917;82;25734;-82
2022/01/28 10:34:41;;;;;;;6.97;2.87;;;;;;;1.96;75.10;96953.25;1734259;81;25781;-82
2022/01/28 10:37:20;;;;;;;12.43;5.65;;;;;;;1.90;74.91;96936.64;1733893;81;25985;-82
2022/01/28 10:39:59;;;;;;;15.70;6.50;;;;;;;1.90;74.96;96950.77;1728858;81;25771;-81
2022/01/28 10:42:48;;;;;;;8.73;3.90;;;;;;;1.92;75.03;96955.94;1733964;82;28270;-81
2022/01/28 10:45:15;;;;;;;7.65;3.33;;;;;;;1.90;75.02;96943.29;1733227;81;25894;-81
2022/01/28 10:47:55;;;;;;;19.15;9.23;;;;;;;1.86;74.92;96956.09;1734143;81;25367;-82
2022/01/28 10:50:35;;;;;;;13.10;6.33;;;;;;;1.85;75.07;96954.42;1728518;83;26894;-82
2022/01/28 10:53:12;;;;;;;9.10;3.95;;;;;;;1.86;75.14;96956.59;1734067;81;25766;-81
2022/01/28 10:55:58;;;;;;;13.45;5.80;;;;;;;1.84;75.20;96960.75;1734165;81;28187;-82
2022/01/28 10:58:27;;;;;;;11.85;5.28;;;;;;;1.88;75.31;96962.58;1733707;81;25840;-81
2022/01/28 11:00:57;;;;;;;8.28;4.17;;;;;;;1.92;75.43;96963.92;1733642;82;25721;-82
2022/01/28 11:03:28;;;;;;;8.23;3.42;;;;;;;1.91;75.29;96964.42;1728544;81;25986;-81
2022/01/28 11:05:59;;;;;;;9.10;4.83;;;;;;;1.89;75.37;96967.74;1728629;81;25728;-81
2022/01/28 11:08:31;;;;;;;10.23;4.50;;;;;;;1.88;75.31;96973.23;1728639;82;27463;-83
2022/01/28 11:10:59;;;;;;;11.95;5.62;;;;;;;1.90;75.33;96965.91;1728758;82;25759;-80
2022/01/28 11:13:26;;;;;;;11.33;4.15;;;;;;;1.93;75.45;96972.23;1728761;81;25780;-83
2022/01/28 11:15:53;;;;;;;5.50;2.90;;;;;;;1.93;75.36;96953.61;1709788;83;26367;-83
2022/01/28 11:18:21;;;;;;;9.45;3.75;;;;;;;1.91;75.25;96960.92;1710039;83;25392;-82
2022/01/28 11:21:06;;;;;;;5.72;2.70;;;;;;;1.92;75.28;96973.23;1733573;82;27442;-83
2022/01/28 11:23:55;;;;;;;7.85;2.98;;;;;;;1.90;75.28;96961.42;1735198;82;25276;-83
2022/01/28 11:26:44;;;;;;;6.28;3.22;;;;;;;1.79;75.35;96961.27;1728533;81;26017;-82
2022/01/28 11:29:18;;;;;;;6.37;3.08;;;;;;;1.80;75.48;96952.79;1728514;82;26241;-82
2022/01/28 11:31:52;;;;;;;5.97;3.55;;;;;;;1.80;75.48;96965.59;1728660;81;25974;-81
2022/01/28 11:34:31;;;;;;;5.08;2.55;;;;;;;1.81;75.50;96970.42;1728363;83;26923;-83
2022/01/28 11:37:05;;;;;;;9.15;4.45;;;;;;;1.84;75.53;96971.89;1728339;82;25769;-82
2022/01/28 11:39:46;;;;;;;5.22;3.35;;;;;;;1.84;75.53;96955.92;1713067;82;25937;-82
2022/01/28 11:42:14;;;;;;;5.20;2.75;;;;;;;1.86;75.55;96964.08;1726058;82;26943;-82
2022/01/28 11:44:51;;;;;;;5.85;2.70;;;;;;;1.84;75.58;96968.73;1726307;81;25614;-81
2022/01/28 11:47:41;;;;;;;5.30;2.47;;;;;;;1.86;75.60;96951.27;1728802;81;27497;-84
2022/01/28 11:50:17;;;;;;;4.80;3.35;;;;;;;1.80;75.61;96972.25;1728426;82;25958;-83
2022/01/28 11:52:55;;;;;;;5.20;2.30;;;;;;;1.83;75.69;96967.56;1709921;82;25786;-82
2022/01/28 11:55:30;;;;;;;3.25;2.20;;;;;;;1.86;75.58;96969.90;1710114;82;25995;-82
2022/01/28 11:58:12;;;;;;;4.70;2.40;;;;;;;1.87;75.60;96979.55;1710163;82;25835;-84
2022/01/28 12:00:44;;;;;;;4.53;2.55;;;;;;;1.85;75.57;96974.89;1710168;82;28210;-83
2022/01/28 12:03:24;;;;;;;5.53;2.35;;;;;;;1.87;75.60;96979.55;1710056;82;25750;-81
2022/01/28 12:05:56;;;;;;;6.75;2.37;;;;;;;1.84;75.66;96983.87;1710131;82;25747;-82
2022/01/28 12:08:30;;;;;;;5.72;3.27;;;;;;;1.79;75.77;96978.56;1710288;82;25956;-83
2022/01/28 12:10:56;;;;;;;6.12;2.77;;;;;;;1.71;75.81;96985.70;1710147;82;25781;-82
2022/01/28 12:13:33;;;;;;;7.03;3.80;;;;;;;1.69;76.01;96992.52;1710075;82;27414;-82
2022/01/28 12:16:10;;;;;;;9.60;4.40;;;;;;;1.67;76.21;96986.55;1707081;82;26025;-82
2022/01/28 12:18:57;;;;;;;6.50;3.20;;;;;;;1.65;76.24;97007.16;1709409;82;25688;-82
2022/01/28 12:21:34;;;;;;;9.50;4.33;;;;;;;1.59;76.20;97001.16;1709991;82;25999;-82
2022/01/28 12:24:25;;;;;;;4.62;2.47;;;;;;;1.56;76.42;97004.17;1710183;83;25318;-82
2022/01/28 12:27:04;;;;;;;5.00;2.90;;;;;;;1.52;76.42;96993.52;1710154;83;27498;-82
2022/01/28 12:29:43;;;;;;;5.97;3.50;;;;;;;1.51;76.55;97002.49;1733829;81;25773;-81
2022/01/28 12:32:10;;;;;;;10.70;4.12;;;;;;;1.51;76.74;96999.83;1733958;81;26555;-82
2022/01/28 12:34:45;;;;;;;9.45;5.22;;;;;;;1.46;76.86;97003.47;1733884;81;26418;-82
2022/01/28 12:37:12;;;;;;;11.30;5.75;;;;;;;1.47;76.95;96989.17;1733965;82;25778;-83
2022/01/28 12:39:44;;;;;;;5.85;4.75;;;;;;;1.58;77.36;96998.16;1733831;81;27433;-82
2022/01/28 12:42:22;;;;;;;9.28;6.05;;;;;;;1.72;77.21;96996.18;1733088;82;25738;-81
2022/01/28 12:44:38;;;;;;;9.93;4.90;;;;;;;1.85;77.16;97008.16;1731310;81;25925;-82
2022/01/28 12:47:09;;;;;;;8.05;4.85;;;;;;;1.92;77.01;97008.67;1733976;81;27266;-83
2022/01/28 12:49:38;;;;;;;5.72;3.60;;;;;;;1.93;76.90;97005.52;1733887;81;25896;-82
2022/01/28 12:52:08;;;;;;;7.67;3.92;;;;;;;1.93;76.92;97007.67;1733949;81;27443;-82
2022/01/28 12:54:47;;;;;;;7.45;3.77;;;;;;;1.93;76.85;97010.84;1733550;81;25853;-81
2022/01/28 12:57:17;;;;;;;7.25;2.85;;;;;;;1.89;76.80;97012.16;1732938;82;25860;-82
2022/01/28 12:59:46;;;;;;;7.50;3.65;;;;;;;1.81;76.72;97008.48;1733670;82;26015;-81
2022/01/28 13:02:15;;;;;;;8.30;3.67;;;;;;;1.79;76.91;97011.00;1733643;82;25817;-82
2022/01/28 13:10:31;;;;;;;9.30;4.20;;;;;;;1.61;77.13;97035.09;1733485;81;25769;-82
2022/01/28 13:13:10;;;;;;;8.43;3.10;;;;;;;1.61;77.21;97035.58;1733643;81;26175;-83
2022/01/28 13:15:38;;;;;;;5.37;3.05;;;;;;;1.54;77.11;97036.75;1733492;81;25705;-85